This is the latest recevied weather packets stored in our database for station/object IZ5MJO-13. If no packets are shown the sender has not sent any weather packets the latest 10 day(s).
| Time | Temp. | Humidity | Pressure | Rain* | Wind** | Luminosity | Snow |
|---|---|---|---|---|---|---|---|
| 1777525115 | 13.89° C | 56% | 1007.5 hPa | - | - | - | - |
| 1777524949 | 13.33° C | 58% | 1006.8 hPa | - | - | - | - |
| 1777524215 | 13.33° C | 56% | 1007.5 hPa | - | - | - | - |
| 1777523314 | 13.33° C | 55% | 1007.3 hPa | - | - | - | - |
| 1777522414 | 12.78° C | 59% | 1007.2 hPa | - | - | - | - |
| 1777521514 | 12.78° C | 58% | 1007.2 hPa | - | - | - | - |
| 1777520613 | 13.33° C | 55% | 1007 hPa | - | - | - | - |
| 1777519713 | 12.78° C | 55% | 1007 hPa | - | - | - | - |
| 1777518812 | 13.33° C | 55% | 1006.9 hPa | - | - | - | - |
| 1777517912 | 13.33° C | 55% | 1007.1 hPa | - | - | - | - |
| 1777517012 | 13.33° C | 55% | 1007 hPa | - | - | - | - |
| 1777516111 | 13.33° C | 58% | 1006.8 hPa | - | - | - | - |
| 1777515216 | 13.33° C | 55% | 1006.9 hPa | - | - | - | - |
| 1777514315 | 13.33° C | 52% | 1006.8 hPa | - | - | - | - |
| 1777513415 | 13.33° C | 53% | 1006.6 hPa | - | - | - | - |
| 1777512515 | 13.33° C | 51% | 1006.5 hPa | - | - | - | - |
| 1777511615 | 13.33° C | 51% | 1006.5 hPa | - | - | - | - |
| 1777510759 | 16.11° C | 42% | 1005.7 hPa | - | - | - | - |
| 1777510732 | 16.67° C | 42% | 1005.6 hPa | - | - | - | - |
| 1777510715 | 13.33° C | 53% | 1006.6 hPa | - | - | - | - |
| 1777509815 | 13.89° C | 55% | 1006.5 hPa | - | - | - | - |
| 1777508914 | 13.89° C | 52% | 1006.5 hPa | - | - | - | - |
| 1777508014 | 13.89° C | 53% | 1006.5 hPa | - | - | - | - |
| 1777507114 | 14.44° C | 56% | 1006.4 hPa | - | - | - | - |
| 1777506214 | 14.44° C | 55% | 1006.4 hPa | - | - | - | - |
* Rain since midnight (hover to see other rain measurements)
** Current wind speed in m/s (hover to see current wind gust speed)